createdAt,value
2018-12-04T00:01:32.396Z,7.30
2018-12-04T00:04:03.262Z,7.30
2018-12-04T00:06:34.563Z,7.20
2018-12-04T00:09:08.047Z,7.20
2018-12-04T00:11:38.993Z,7.20
2018-12-04T00:14:09.862Z,7.20
2018-12-04T00:16:41.024Z,7.10
2018-12-04T00:19:11.945Z,7.10
2018-12-04T00:21:42.982Z,7.20
2018-12-04T00:24:13.809Z,7.20
2018-12-04T00:26:44.782Z,7.20
2018-12-04T00:29:15.650Z,7.20
2018-12-04T00:31:46.562Z,7.20
2018-12-04T00:34:17.371Z,7.10
2018-12-04T00:36:48.310Z,7.20
2018-12-04T00:39:19.134Z,7.20
2018-12-04T00:41:50.121Z,7.20
2018-12-04T00:44:21.014Z,7.20
2018-12-04T00:46:51.929Z,7.20
2018-12-04T00:49:22.782Z,7.20
2018-12-04T00:51:53.722Z,7.20
2018-12-04T00:54:24.602Z,7.40
2018-12-04T00:56:56.242Z,7.30
2018-12-04T00:59:27.030Z,7.30
2018-12-04T01:01:58.043Z,7.40
2018-12-04T01:04:28.920Z,7.30
2018-12-04T01:06:59.895Z,7.20
2018-12-04T01:09:30.766Z,7.10
2018-12-04T01:12:01.717Z,7.20
2018-12-04T01:14:32.584Z,7.30
2018-12-04T01:17:03.504Z,7.30
2018-12-04T01:19:34.351Z,7.20
2018-12-04T01:22:05.331Z,7.10
2018-12-04T01:24:36.244Z,7.10
2018-12-04T01:27:07.151Z,7.10
2018-12-04T01:29:38.001Z,7.10
2018-12-04T01:32:08.982Z,7.10
2018-12-04T01:34:39.801Z,7.00
2018-12-04T01:37:11.230Z,7.00
2018-12-04T01:39:42.044Z,6.90
2018-12-04T01:42:12.953Z,6.80
2018-12-04T01:44:43.802Z,6.80
2018-12-04T01:47:14.710Z,6.80
2018-12-04T01:49:45.682Z,6.80
2018-12-04T01:52:16.634Z,6.80
2018-12-04T01:54:47.491Z,6.80
2018-12-04T01:57:18.686Z,6.80
2018-12-04T01:59:49.596Z,6.80
2018-12-04T02:02:20.630Z,6.70
2018-12-04T02:04:51.482Z,6.80
2018-12-04T02:07:22.424Z,6.80
2018-12-04T02:09:53.438Z,6.70
2018-12-04T02:12:24.430Z,6.60
2018-12-04T02:14:55.282Z,6.50
2018-12-04T02:17:26.262Z,6.40
2018-12-04T02:19:57.118Z,6.40
2018-12-04T02:22:28.093Z,6.50
2018-12-04T02:24:59.075Z,6.50
2018-12-04T02:27:30.042Z,6.50
2018-12-04T02:30:00.993Z,6.50
2018-12-04T02:32:32.025Z,6.40
2018-12-04T02:35:02.931Z,6.40
2018-12-04T02:37:33.870Z,6.40
2018-12-04T02:40:05.663Z,6.50
2018-12-04T02:42:36.859Z,6.60
2018-12-04T02:45:08.162Z,6.60
2018-12-04T02:47:39.058Z,6.60
2018-12-04T02:50:10.051Z,6.60
2018-12-04T02:52:40.930Z,6.60
2018-12-04T02:55:11.852Z,6.60
2018-12-04T02:57:42.743Z,6.50
2018-12-04T03:00:13.771Z,6.50
2018-12-04T03:02:44.614Z,6.50
2018-12-04T03:05:17.072Z,6.50
2018-12-04T03:07:47.972Z,6.30
2018-12-04T03:10:18.864Z,6.30
2018-12-04T03:12:49.810Z,6.40
2018-12-04T03:15:20.882Z,6.30
2018-12-04T03:17:51.892Z,6.40
2018-12-04T03:20:22.800Z,6.40
2018-12-04T03:22:53.896Z,6.40
2018-12-04T03:25:24.961Z,6.40
2018-12-04T03:27:56.179Z,6.40
2018-12-04T03:30:27.316Z,6.40
2018-12-04T03:32:58.554Z,6.40
2018-12-04T03:35:29.659Z,6.40
2018-12-04T03:38:01.463Z,6.30
2018-12-04T03:40:32.809Z,6.40
2018-12-04T03:43:04.034Z,6.30
2018-12-04T03:45:35.195Z,6.30
2018-12-04T03:48:06.408Z,6.10
2018-12-04T03:50:37.376Z,6.10
2018-12-04T03:53:08.285Z,6.20
2018-12-04T03:55:39.224Z,6.20
2018-12-04T03:58:10.321Z,6.10
2018-12-04T04:00:41.348Z,6.10
2018-12-04T04:03:12.394Z,6.20
2018-12-04T04:05:43.445Z,6.30
2018-12-04T04:08:14.753Z,6.30
2018-12-04T04:10:45.699Z,6.20
2018-12-04T04:13:16.800Z,6.20
2018-12-04T04:15:47.750Z,6.20
2018-12-04T04:18:18.687Z,6.20
2018-12-04T04:20:49.594Z,6.20
2018-12-04T04:23:20.542Z,6.20
2018-12-04T04:25:51.453Z,6.20
2018-12-04T04:28:22.414Z,6.10
2018-12-04T04:30:53.290Z,6.10
2018-12-04T04:33:24.272Z,6.10
2018-12-04T04:35:58.427Z,6.20
2018-12-04T04:38:29.429Z,6.20
2018-12-04T04:41:00.289Z,6.20
2018-12-04T04:43:31.253Z,6.30
2018-12-04T04:46:02.142Z,6.40
2018-12-04T04:48:33.206Z,6.40
2018-12-04T04:51:04.177Z,6.30
2018-12-04T04:53:35.275Z,5.90
2018-12-04T04:56:08.454Z,6.00
2018-12-04T04:58:40.270Z,6.10
2018-12-04T05:01:11.593Z,6.10
2018-12-04T05:03:42.594Z,6.20
2018-12-04T05:06:13.484Z,6.30
2018-12-04T05:08:44.481Z,6.30
2018-12-04T05:11:15.368Z,6.30
2018-12-04T05:13:46.353Z,6.30
2018-12-04T05:16:17.330Z,6.30
2018-12-04T05:18:50.171Z,6.30
2018-12-04T05:21:21.129Z,6.30
2018-12-04T05:23:52.053Z,6.30
2018-12-04T05:26:23.113Z,6.40
2018-12-04T05:28:54.103Z,6.50
2018-12-04T05:31:24.970Z,6.50
2018-12-04T05:33:55.880Z,6.40
2018-12-04T05:36:26.774Z,6.30
2018-12-04T05:38:57.688Z,6.30
2018-12-04T05:41:28.545Z,6.30
2018-12-04T05:43:59.486Z,6.30
2018-12-04T05:46:30.673Z,6.30
2018-12-04T05:49:01.652Z,6.30
2018-12-04T05:51:32.533Z,6.30
2018-12-04T05:54:03.568Z,6.30
2018-12-04T05:56:37.047Z,6.30
2018-12-04T05:59:08.055Z,6.20
2018-12-04T06:01:38.929Z,6.30
2018-12-04T06:04:09.906Z,6.30
2018-12-04T06:06:40.840Z,6.30
2018-12-04T06:09:11.835Z,6.30
2018-12-04T06:11:42.838Z,6.30
2018-12-04T06:14:14.575Z,6.30
2018-12-04T06:16:45.654Z,6.30
2018-12-04T06:19:17.611Z,6.30
2018-12-04T06:21:48.593Z,6.30
2018-12-04T06:24:19.689Z,6.30
2018-12-04T06:26:57.106Z,6.30
2018-12-04T06:29:28.085Z,6.30
2018-12-04T06:31:59.254Z,6.20
2018-12-04T06:34:30.295Z,6.30
2018-12-04T06:37:01.189Z,6.20
2018-12-04T06:39:32.341Z,6.20
2018-12-04T06:42:03.301Z,6.10
2018-12-04T06:44:35.300Z,6.20
2018-12-04T06:47:06.403Z,6.20
2018-12-04T06:49:37.454Z,6.10
2018-12-04T06:52:08.389Z,6.10
2018-12-04T06:54:39.326Z,6.10
2018-12-04T06:57:10.398Z,6.20
2018-12-04T06:59:41.395Z,6.20
2018-12-04T07:02:12.478Z,6.20
2018-12-04T07:04:48.587Z,6.20
2018-12-04T07:07:22.320Z,6.20
2018-12-04T07:09:53.329Z,6.20
2018-12-04T07:12:24.388Z,6.20
2018-12-04T07:14:55.285Z,6.20
2018-12-04T07:17:26.060Z,6.10
2018-12-04T07:19:56.993Z,6.20
2018-12-04T07:22:28.340Z,6.20
2018-12-04T07:24:59.273Z,6.20
2018-12-04T07:27:30.193Z,6.30
2018-12-04T07:30:01.246Z,6.30
2018-12-04T07:32:32.181Z,6.40
2018-12-04T07:35:03.097Z,6.30
2018-12-04T07:37:33.982Z,6.30
2018-12-04T07:40:05.667Z,6.30
2018-12-04T07:42:36.621Z,6.30
2018-12-04T07:45:08.497Z,6.30
2018-12-04T07:47:39.332Z,6.40
2018-12-04T07:50:10.325Z,6.40
2018-12-04T07:52:41.300Z,6.50
2018-12-04T07:55:12.159Z,6.60
2018-12-04T07:57:43.075Z,6.70
2018-12-04T08:00:13.985Z,6.70
2018-12-04T08:02:44.817Z,6.70
2018-12-04T08:05:15.954Z,6.70
2018-12-04T08:07:46.901Z,6.70
2018-12-04T08:10:18.035Z,6.70
2018-12-04T08:12:48.893Z,6.70
2018-12-04T08:15:19.760Z,6.70
2018-12-04T08:17:50.653Z,6.60
2018-12-04T08:20:21.536Z,6.60
2018-12-04T08:22:52.421Z,6.60
2018-12-04T08:25:23.314Z,6.60
2018-12-04T08:27:54.272Z,6.60
2018-12-04T08:30:25.254Z,6.60
2018-12-04T08:32:56.294Z,6.50
2018-12-04T08:35:27.320Z,6.50
2018-12-04T08:37:59.034Z,6.50
2018-12-04T08:40:30.040Z,6.60
2018-12-04T08:43:01.053Z,6.60
2018-12-04T08:45:33.944Z,6.60
2018-12-04T08:48:05.070Z,6.60
2018-12-04T08:53:47.534Z,6.70
2018-12-04T08:56:18.494Z,6.90
2018-12-04T08:58:49.388Z,7.00
2018-12-04T09:01:20.434Z,7.00
2018-12-04T09:03:51.283Z,6.90
2018-12-04T09:06:22.278Z,6.90
2018-12-04T09:08:53.184Z,6.90
2018-12-04T09:11:26.273Z,6.80
2018-12-04T09:13:57.333Z,6.90
2018-12-04T09:16:28.322Z,6.90
2018-12-04T09:18:59.198Z,6.90
2018-12-04T09:21:30.183Z,6.90
2018-12-04T09:24:01.285Z,7.00
2018-12-04T09:26:32.378Z,7.10
2018-12-04T09:29:03.251Z,7.30
2018-12-04T09:31:34.244Z,7.30
2018-12-04T09:34:05.193Z,7.30
2018-12-04T09:36:36.176Z,7.30
2018-12-04T09:39:09.554Z,7.40
2018-12-04T09:41:40.912Z,7.40
2018-12-04T09:44:11.921Z,7.50
2018-12-04T09:46:43.021Z,7.70
2018-12-04T09:49:14.024Z,7.70
2018-12-04T09:51:45.459Z,7.80
2018-12-04T09:54:16.424Z,7.80
2018-12-04T09:56:47.517Z,7.80
2018-12-04T09:59:19.063Z,7.80
2018-12-04T10:01:50.441Z,7.80
2018-12-04T10:04:22.949Z,7.80
2018-12-04T10:06:54.064Z,7.80
2018-12-04T10:09:25.131Z,7.90
2018-12-04T10:11:57.238Z,7.90
2018-12-04T10:14:34.837Z,8.00
2018-12-04T10:17:06.053Z,7.90
2018-12-04T10:19:37.690Z,7.90
2018-12-04T10:22:08.867Z,7.90
2018-12-04T10:24:39.764Z,7.80
2018-12-04T10:27:10.934Z,7.80
2018-12-04T10:29:41.840Z,7.80
2018-12-04T10:32:12.808Z,7.80
2018-12-04T10:34:43.805Z,7.80
2018-12-04T10:37:14.737Z,7.80
2018-12-04T10:39:45.674Z,7.80
2018-12-04T10:42:16.592Z,7.80
2018-12-04T10:44:47.512Z,7.80
2018-12-04T10:47:18.389Z,7.70
2018-12-04T10:49:49.303Z,7.70
2018-12-04T10:52:20.205Z,7.80
2018-12-04T10:54:51.085Z,7.80
2018-12-04T10:57:28.672Z,7.60
2018-12-04T10:59:59.566Z,7.60
2018-12-04T11:02:34.486Z,7.50
2018-12-04T11:05:05.875Z,7.40
2018-12-04T11:07:36.735Z,7.40
2018-12-04T11:10:08.130Z,7.30
2018-12-04T11:12:39.387Z,7.20
2018-12-04T11:15:10.400Z,7.30
2018-12-04T11:17:41.307Z,7.30
2018-12-04T11:20:13.281Z,7.30
2018-12-04T11:22:44.259Z,7.40
2018-12-04T11:25:15.339Z,7.60
2018-12-04T11:27:46.519Z,7.70
2018-12-04T11:30:17.383Z,7.70
2018-12-04T11:32:48.370Z,7.80
2018-12-04T11:35:19.262Z,7.80
2018-12-04T11:37:50.254Z,7.80
2018-12-04T11:40:21.195Z,7.70
2018-12-04T11:42:52.221Z,7.80
2018-12-04T11:45:23.157Z,8.00
2018-12-04T11:47:54.173Z,8.00
2018-12-04T11:50:25.248Z,8.10
2018-12-04T11:52:56.252Z,8.00
2018-12-04T11:55:27.572Z,7.90
2018-12-04T11:57:58.525Z,8.00
2018-12-04T12:00:35.975Z,8.00
2018-12-04T12:03:06.976Z,8.10
2018-12-04T12:05:37.811Z,7.90
2018-12-04T12:08:08.720Z,7.80
2018-12-04T12:10:39.718Z,7.80
2018-12-04T12:13:10.621Z,7.70
2018-12-04T12:15:41.509Z,7.80
2018-12-04T12:18:12.465Z,7.90
2018-12-04T12:20:43.637Z,7.80
2018-12-04T12:23:14.624Z,7.70
2018-12-04T12:25:45.553Z,7.70
2018-12-04T12:28:16.705Z,7.70
2018-12-04T12:30:47.705Z,7.70
2018-12-04T12:33:18.642Z,7.60
2018-12-04T12:35:49.633Z,7.60
2018-12-04T12:38:20.647Z,7.50
2018-12-04T12:40:51.566Z,7.40
2018-12-04T12:43:22.894Z,7.30
2018-12-04T12:45:53.952Z,7.10
2018-12-04T12:48:25.146Z,7.10
2018-12-04T12:50:56.198Z,7.00
2018-12-04T12:53:27.121Z,6.90
2018-12-04T12:55:58.055Z,6.70
2018-12-04T12:58:29.018Z,6.80
2018-12-04T13:01:00.137Z,6.80
2018-12-04T13:03:31.134Z,6.70
2018-12-04T13:06:02.065Z,6.70
2018-12-04T13:08:33.013Z,6.60
2018-12-04T13:11:03.981Z,6.70
2018-12-04T13:13:36.896Z,6.60
2018-12-04T13:16:07.992Z,6.70
2018-12-04T13:18:38.941Z,6.50
2018-12-04T13:21:10.194Z,6.50
2018-12-04T13:23:41.202Z,6.30
2018-12-04T13:26:12.089Z,6.20
2018-12-04T13:28:43.019Z,6.10
2018-12-04T13:31:13.980Z,6.00
2018-12-04T13:33:44.932Z,5.90
2018-12-04T13:36:15.814Z,5.90
2018-12-04T13:38:47.081Z,6.00
2018-12-04T13:41:18.027Z,6.00
2018-12-04T13:43:48.965Z,5.80
2018-12-04T13:46:19.961Z,5.70
2018-12-04T13:48:50.908Z,5.50
2018-12-04T13:51:21.837Z,5.40
2018-12-04T13:53:52.770Z,5.20
2018-12-04T13:56:23.797Z,5.20
2018-12-04T13:58:54.884Z,5.20
2018-12-04T14:01:25.774Z,5.20
2018-12-04T14:03:57.322Z,5.30
2018-12-04T14:06:28.386Z,5.60
2018-12-04T14:08:59.401Z,5.60
2018-12-04T14:11:30.301Z,5.50
2018-12-04T14:14:01.314Z,5.50
2018-12-04T14:16:32.215Z,5.30
2018-12-04T14:19:03.213Z,5.30
2018-12-04T14:21:34.097Z,5.40
2018-12-04T14:24:05.246Z,5.30
2018-12-04T14:26:36.205Z,5.20
2018-12-04T14:29:07.192Z,5.10
2018-12-04T14:31:38.194Z,5.30
2018-12-04T14:34:10.002Z,5.40
2018-12-04T14:36:40.877Z,5.40
2018-12-04T14:39:12.336Z,5.30
2018-12-04T14:41:43.261Z,5.40
2018-12-04T14:44:14.415Z,5.20
2018-12-04T14:46:45.334Z,5.20
2018-12-04T14:49:16.275Z,5.40
2018-12-04T14:51:47.316Z,5.50
2018-12-04T14:54:18.258Z,5.40
2018-12-04T14:56:49.370Z,5.30
2018-12-04T14:59:20.327Z,5.20
2018-12-04T15:01:51.344Z,5.20
2018-12-04T15:04:23.117Z,5.20
2018-12-04T15:06:54.303Z,5.20
2018-12-04T15:09:25.416Z,5.20
2018-12-04T15:11:56.426Z,5.10
2018-12-04T15:14:27.721Z,5.20
2018-12-04T15:16:58.775Z,5.20
2018-12-04T15:19:29.771Z,5.20
2018-12-04T15:22:00.765Z,5.20
2018-12-04T15:24:31.696Z,5.20
2018-12-04T15:27:02.576Z,5.20
2018-12-04T15:29:33.633Z,5.20
2018-12-04T15:32:04.528Z,5.30
2018-12-04T15:34:35.709Z,5.30
2018-12-04T15:37:06.782Z,5.30
2018-12-04T15:39:37.781Z,5.40
2018-12-04T15:42:08.801Z,5.30
2018-12-04T15:44:39.993Z,5.20
2018-12-04T15:47:10.963Z,5.20
2018-12-04T15:49:42.129Z,5.20
2018-12-04T15:52:13.178Z,5.00
2018-12-04T15:54:44.246Z,5.00
2018-12-04T15:57:15.174Z,4.90
2018-12-04T15:59:46.135Z,4.90
2018-12-04T16:02:17.032Z,4.90
2018-12-04T16:04:47.992Z,4.80
2018-12-04T16:07:19.197Z,5.00
2018-12-04T16:09:50.214Z,5.00
2018-12-04T16:12:21.262Z,5.00
2018-12-04T16:14:52.189Z,5.00
2018-12-04T16:17:23.239Z,5.10
2018-12-04T16:19:54.274Z,5.10
2018-12-04T16:22:25.370Z,5.10
2018-12-04T16:24:56.415Z,5.10
2018-12-04T16:27:27.769Z,5.10
2018-12-04T16:29:59.003Z,5.10
2018-12-04T16:32:30.266Z,5.20
2018-12-04T16:35:08.976Z,5.20
2018-12-04T16:37:40.394Z,5.20
2018-12-04T16:40:11.906Z,5.10
2018-12-04T16:42:42.973Z,5.10
2018-12-04T16:45:14.266Z,5.00
2018-12-04T16:47:45.322Z,5.00
2018-12-04T16:50:16.734Z,5.00
2018-12-04T16:52:47.953Z,5.00
2018-12-04T16:55:19.096Z,5.00
2018-12-04T16:57:50.331Z,5.00
2018-12-04T17:00:21.366Z,4.90
2018-12-04T17:02:52.371Z,4.90
2018-12-04T17:05:23.602Z,4.90
2018-12-04T17:07:54.888Z,5.00
2018-12-04T17:10:26.349Z,5.10
2018-12-04T17:12:57.736Z,5.20
2018-12-04T17:15:29.508Z,5.10
2018-12-04T17:18:01.163Z,5.10
2018-12-04T17:20:32.754Z,5.00
2018-12-04T17:23:03.903Z,4.90
2018-12-04T17:25:35.440Z,4.90
2018-12-04T17:28:06.888Z,4.90
2018-12-04T17:30:38.389Z,4.90
2018-12-04T17:33:10.127Z,4.90
2018-12-04T17:35:42.398Z,4.90
2018-12-04T17:38:13.756Z,5.00
2018-12-04T17:40:45.673Z,5.00
2018-12-04T17:43:17.216Z,5.00
2018-12-04T17:45:55.316Z,5.00
2018-12-04T17:48:26.929Z,5.00
2018-12-04T17:50:58.989Z,5.10
2018-12-04T17:53:30.511Z,5.00
2018-12-04T17:56:02.474Z,5.00
2018-12-04T17:58:34.137Z,5.00
2018-12-04T18:01:05.808Z,5.00
2018-12-04T18:03:37.470Z,5.00
2018-12-04T18:06:09.047Z,5.10
2018-12-04T18:08:40.428Z,5.10
2018-12-04T18:11:12.601Z,5.00
2018-12-04T18:13:44.274Z,4.90
2018-12-04T18:16:15.692Z,5.00
2018-12-04T18:18:51.269Z,5.10
2018-12-04T18:21:22.694Z,5.00
2018-12-04T18:23:54.123Z,5.10
2018-12-04T18:26:25.594Z,5.20
2018-12-04T18:28:57.069Z,5.20
2018-12-04T18:31:28.647Z,5.10
2018-12-04T18:34:00.091Z,5.20
2018-12-04T18:36:32.520Z,5.20
2018-12-04T18:39:07.548Z,5.10
2018-12-04T18:41:40.072Z,4.90
2018-12-04T18:44:13.933Z,4.90
2018-12-04T18:46:45.421Z,4.90
2018-12-04T18:49:17.840Z,4.90
2018-12-04T18:51:50.275Z,5.00
2018-12-04T18:54:22.661Z,5.00
2018-12-04T18:56:54.456Z,4.90
2018-12-04T18:59:26.168Z,4.80
2018-12-04T19:01:57.766Z,4.90
2018-12-04T19:04:29.334Z,4.80
2018-12-04T19:07:00.962Z,4.80
2018-12-04T19:09:32.447Z,4.80
2018-12-04T19:12:04.059Z,4.70
2018-12-04T19:14:35.582Z,4.70
2018-12-04T19:17:07.162Z,4.80
2018-12-04T19:19:38.685Z,4.80
2018-12-04T19:22:10.320Z,4.80
2018-12-04T19:24:41.904Z,4.80
2018-12-04T19:27:13.867Z,4.80
2018-12-04T19:29:45.431Z,4.80
2018-12-04T19:32:17.499Z,4.80
2018-12-04T19:34:49.115Z,4.80
2018-12-04T19:37:20.753Z,4.90
2018-12-04T19:39:52.570Z,4.90
2018-12-04T19:42:25.303Z,4.90
2018-12-04T19:44:56.917Z,4.90
2018-12-04T19:47:28.602Z,4.90
2018-12-04T19:50:00.281Z,4.90
2018-12-04T19:52:31.897Z,4.80
2018-12-04T19:55:03.621Z,4.80
2018-12-04T19:57:35.373Z,4.80
2018-12-04T20:00:09.934Z,4.80
2018-12-04T20:02:41.709Z,4.80
2018-12-04T20:05:13.401Z,4.80
2018-12-04T20:07:45.093Z,4.80
2018-12-04T20:10:17.728Z,4.70
2018-12-04T20:12:49.316Z,4.80
2018-12-04T20:15:21.131Z,4.90
2018-12-04T20:17:52.945Z,4.90
2018-12-04T20:20:24.585Z,4.90
2018-12-04T20:22:58.147Z,4.90
2018-12-04T20:25:29.720Z,4.90
2018-12-04T20:28:01.386Z,4.90
2018-12-04T20:30:33.102Z,4.90
2018-12-04T20:33:05.463Z,4.90
2018-12-04T20:35:37.435Z,4.90
2018-12-04T20:38:09.348Z,5.00
2018-12-04T20:40:40.942Z,5.00
2018-12-04T20:43:12.699Z,4.90
2018-12-04T20:45:44.334Z,5.00
2018-12-04T20:48:16.730Z,5.00
2018-12-04T20:50:49.072Z,5.00
2018-12-04T20:53:20.963Z,5.00
2018-12-04T20:55:52.830Z,4.90
2018-12-04T20:58:35.566Z,4.90
2018-12-04T21:01:07.513Z,4.90
2018-12-04T21:03:39.146Z,5.00
2018-12-04T21:06:12.956Z,4.90
2018-12-04T21:08:44.702Z,4.90
2018-12-04T21:11:16.376Z,4.90
2018-12-04T21:13:50.355Z,4.90
2018-12-04T21:16:21.901Z,5.00
2018-12-04T21:18:53.573Z,5.00
2018-12-04T21:21:25.205Z,4.90
2018-12-04T21:23:56.876Z,4.80
2018-12-04T21:26:28.375Z,4.80
2018-12-04T21:29:04.748Z,4.80
2018-12-04T21:31:41.146Z,4.80
2018-12-04T21:34:17.511Z,4.80
2018-12-04T21:36:54.128Z,4.80
2018-12-04T21:39:30.624Z,4.80
2018-12-04T21:42:06.026Z,4.80
2018-12-04T21:44:42.571Z,4.70
2018-12-04T21:47:19.126Z,4.80
2018-12-04T21:49:50.664Z,4.80
2018-12-04T21:52:22.606Z,4.80
2018-12-04T21:54:54.169Z,4.80
2018-12-04T21:57:25.599Z,4.80
2018-12-04T21:59:57.342Z,4.70
2018-12-04T22:02:28.635Z,4.70
2018-12-04T22:04:59.982Z,4.70
2018-12-04T22:07:31.187Z,4.70
2018-12-04T22:10:02.267Z,4.70
2018-12-04T22:12:33.452Z,4.70
2018-12-04T22:15:04.664Z,4.70
2018-12-04T22:17:35.634Z,4.70
2018-12-04T22:20:07.323Z,4.70
2018-12-04T22:22:38.323Z,4.60
2018-12-04T22:25:09.333Z,4.60
2018-12-04T22:27:40.299Z,4.60
2018-12-04T22:30:11.605Z,4.60
2018-12-04T22:32:42.540Z,4.50
2018-12-04T22:35:13.595Z,4.60
2018-12-04T22:37:45.562Z,4.50
2018-12-04T22:40:16.532Z,4.50
2018-12-04T22:42:47.415Z,4.50
2018-12-04T22:45:23.607Z,4.50
2018-12-04T22:47:55.385Z,4.50
2018-12-04T22:50:26.393Z,4.50
2018-12-04T22:52:57.277Z,4.50
2018-12-04T22:55:28.213Z,4.40
2018-12-04T22:57:59.096Z,4.40
2018-12-04T23:00:40.608Z,4.40
2018-12-04T23:03:11.840Z,4.40
2018-12-04T23:05:42.773Z,4.40
2018-12-04T23:08:13.677Z,4.40
2018-12-04T23:10:44.646Z,4.40
2018-12-04T23:13:15.613Z,4.40
2018-12-04T23:15:46.573Z,4.40
2018-12-04T23:18:17.453Z,4.30
2018-12-04T23:20:48.405Z,4.30
2018-12-04T23:23:19.344Z,4.30
2018-12-04T23:25:50.354Z,4.30
2018-12-04T23:28:21.417Z,4.30
2018-12-04T23:30:52.413Z,4.30
2018-12-04T23:33:23.293Z,4.20
2018-12-04T23:35:54.235Z,4.20
2018-12-04T23:38:25.132Z,4.30
2018-12-04T23:40:56.114Z,4.20
2018-12-04T23:43:27.037Z,4.20
2018-12-04T23:45:58.043Z,4.20
2018-12-04T23:48:29.024Z,4.20
2018-12-04T23:50:59.974Z,4.20
2018-12-04T23:53:30.868Z,4.10
2018-12-04T23:56:01.805Z,4.10
2018-12-04T23:58:32.743Z,4.10
